sensor_id;sensor_type;location;lat;lon;timestamp;P1;durP1;ratioP1;P2;durP2;ratioP2
35366;SDS011;21465;52.278;20.962;2023-01-25T00:01:42;9.82;;;8.93;;
35366;SDS011;21465;52.278;20.962;2023-01-25T00:04:08;9.65;;;8.65;;
35366;SDS011;21465;52.278;20.962;2023-01-25T00:06:34;9.00;;;8.20;;
35366;SDS011;21465;52.278;20.962;2023-01-25T00:08:59;9.35;;;8.45;;
35366;SDS011;21465;52.278;20.962;2023-01-25T00:11:25;8.63;;;7.82;;
35366;SDS011;21465;52.278;20.962;2023-01-25T00:13:53;8.20;;;7.50;;
35366;SDS011;21465;52.278;20.962;2023-01-25T00:16:20;7.50;;;6.80;;
35366;SDS011;21465;52.278;20.962;2023-01-25T00:18:45;7.55;;;6.85;;
35366;SDS011;21465;52.278;20.962;2023-01-25T00:23:39;8.35;;;7.63;;
35366;SDS011;21465;52.278;20.962;2023-01-25T00:26:05;7.78;;;7.10;;
35366;SDS011;21465;52.278;20.962;2023-01-25T00:28:31;8.57;;;7.78;;
35366;SDS011;21465;52.278;20.962;2023-01-25T00:31:00;8.80;;;8.00;;
35366;SDS011;21465;52.278;20.962;2023-01-25T00:36:01;8.70;;;7.90;;
35366;SDS011;21465;52.278;20.962;2023-01-25T00:38:36;9.13;;;8.32;;
35366;SDS011;21465;52.278;20.962;2023-01-25T00:41:03;8.57;;;7.70;;
35366;SDS011;21465;52.278;20.962;2023-01-25T00:43:28;9.13;;;8.25;;
35366;SDS011;21465;52.278;20.962;2023-01-25T00:46:00;7.10;;;6.43;;
35366;SDS011;21465;52.278;20.962;2023-01-25T00:48:26;8.02;;;7.32;;
35366;SDS011;21465;52.278;20.962;2023-01-25T00:50:51;8.02;;;7.32;;
35366;SDS011;21465;52.278;20.962;2023-01-25T00:53:18;7.40;;;6.70;;
35366;SDS011;21465;52.278;20.962;2023-01-25T00:55:53;6.93;;;6.22;;
35366;SDS011;21465;52.278;20.962;2023-01-25T00:58:19;7.03;;;6.40;;
35366;SDS011;21465;52.278;20.962;2023-01-25T01:00:45;7.28;;;6.57;;
35366;SDS011;21465;52.278;20.962;2023-01-25T01:03:10;6.80;;;6.20;;
35366;SDS011;21465;52.278;20.962;2023-01-25T01:05:37;7.05;;;6.45;;
35366;SDS011;21465;52.278;20.962;2023-01-25T01:08:03;6.93;;;6.32;;
35366;SDS011;21465;52.278;20.962;2023-01-25T01:10:29;6.80;;;6.20;;
35366;SDS011;21465;52.278;20.962;2023-01-25T01:12:54;7.53;;;6.93;;
35366;SDS011;21465;52.278;20.962;2023-01-25T01:15:20;6.80;;;6.25;;
35366;SDS011;21465;52.278;20.962;2023-01-25T01:17:46;6.85;;;6.25;;
35366;SDS011;21465;52.278;20.962;2023-01-25T01:20:12;7.78;;;7.10;;
35366;SDS011;21465;52.278;20.962;2023-01-25T01:22:37;7.20;;;6.50;;
35366;SDS011;21465;52.278;20.962;2023-01-25T01:25:03;6.03;;;5.53;;
35366;SDS011;21465;52.278;20.962;2023-01-25T01:27:29;7.65;;;6.95;;
35366;SDS011;21465;52.278;20.962;2023-01-25T01:29:55;7.80;;;7.10;;
35366;SDS011;21465;52.278;20.962;2023-01-25T01:32:21;6.85;;;6.25;;
35366;SDS011;21465;52.278;20.962;2023-01-25T01:34:46;6.80;;;6.20;;
35366;SDS011;21465;52.278;20.962;2023-01-25T01:37:12;6.00;;;5.47;;
35366;SDS011;21465;52.278;20.962;2023-01-25T01:39:38;6.28;;;5.78;;
35366;SDS011;21465;52.278;20.962;2023-01-25T01:42:03;6.55;;;5.95;;
35366;SDS011;21465;52.278;20.962;2023-01-25T01:44:41;6.53;;;5.93;;
35366;SDS011;21465;52.278;20.962;2023-01-25T01:47:13;6.38;;;5.78;;
35366;SDS011;21465;52.278;20.962;2023-01-25T01:49:43;6.35;;;5.82;;
35366;SDS011;21465;52.278;20.962;2023-01-25T01:52:12;7.22;;;6.53;;
35366;SDS011;21465;52.278;20.962;2023-01-25T01:54:42;6.70;;;6.10;;
35366;SDS011;21465;52.278;20.962;2023-01-25T01:57:12;6.75;;;6.15;;
35366;SDS011;21465;52.278;20.962;2023-01-25T01:59:43;6.60;;;6.00;;
35366;SDS011;21465;52.278;20.962;2023-01-25T02:02:13;6.78;;;6.18;;
35366;SDS011;21465;52.278;20.962;2023-01-25T02:04:39;6.85;;;6.25;;
35366;SDS011;21465;52.278;20.962;2023-01-25T02:07:08;7.20;;;6.60;;
35366;SDS011;21465;52.278;20.962;2023-01-25T02:09:38;6.45;;;5.90;;
35366;SDS011;21465;52.278;20.962;2023-01-25T02:12:04;6.93;;;6.32;;
35366;SDS011;21465;52.278;20.962;2023-01-25T02:14:31;6.47;;;5.88;;
35366;SDS011;21465;52.278;20.962;2023-01-25T02:16:57;6.63;;;6.13;;
35366;SDS011;21465;52.278;20.962;2023-01-25T02:19:33;5.95;;;5.45;;
35366;SDS011;21465;52.278;20.962;2023-01-25T02:22:07;7.22;;;6.63;;
35366;SDS011;21465;52.278;20.962;2023-01-25T02:24:34;6.53;;;5.93;;
35366;SDS011;21465;52.278;20.962;2023-01-25T02:27:01;6.47;;;5.90;;
35366;SDS011;21465;52.278;20.962;2023-01-25T02:29:29;6.60;;;6.00;;
35366;SDS011;21465;52.278;20.962;2023-01-25T02:32:04;5.50;;;5.00;;
35366;SDS011;21465;52.278;20.962;2023-01-25T02:34:31;6.10;;;5.50;;
35366;SDS011;21465;52.278;20.962;2023-01-25T02:36:56;6.25;;;5.68;;
35366;SDS011;21465;52.278;20.962;2023-01-25T02:39:22;6.35;;;5.75;;
35366;SDS011;21465;52.278;20.962;2023-01-25T02:41:50;6.78;;;6.13;;
35366;SDS011;21465;52.278;20.962;2023-01-25T02:44:17;6.38;;;5.82;;
35366;SDS011;21465;52.278;20.962;2023-01-25T02:46:45;6.80;;;6.20;;
35366;SDS011;21465;52.278;20.962;2023-01-25T02:49:12;7.55;;;6.05;;
35366;SDS011;21465;52.278;20.962;2023-01-25T02:51:39;6.55;;;5.95;;
35366;SDS011;21465;52.278;20.962;2023-01-25T02:54:07;6.63;;;5.88;;
35366;SDS011;21465;52.278;20.962;2023-01-25T02:56:33;6.97;;;6.38;;
35366;SDS011;21465;52.278;20.962;2023-01-25T02:58:59;6.57;;;5.97;;
35366;SDS011;21465;52.278;20.962;2023-01-25T03:01:39;6.75;;;5.82;;
35366;SDS011;21465;52.278;20.962;2023-01-25T03:04:06;6.57;;;6.00;;
35366;SDS011;21465;52.278;20.962;2023-01-25T03:06:32;7.22;;;5.90;;
35366;SDS011;21465;52.278;20.962;2023-01-25T03:08:58;6.70;;;6.10;;
35366;SDS011;21465;52.278;20.962;2023-01-25T03:11:24;6.90;;;6.30;;
35366;SDS011;21465;52.278;20.962;2023-01-25T03:13:50;6.78;;;6.13;;
35366;SDS011;21465;52.278;20.962;2023-01-25T03:16:15;6.28;;;5.78;;
35366;SDS011;21465;52.278;20.962;2023-01-25T03:18:41;5.70;;;5.20;;
35366;SDS011;21465;52.278;20.962;2023-01-25T03:21:11;6.07;;;5.50;;
35366;SDS011;21465;52.278;20.962;2023-01-25T03:23:42;6.25;;;5.75;;
35366;SDS011;21465;52.278;20.962;2023-01-25T03:26:19;6.20;;;5.70;;
35366;SDS011;21465;52.278;20.962;2023-01-25T03:28:46;6.53;;;5.93;;
35366;SDS011;21465;52.278;20.962;2023-01-25T03:31:13;6.47;;;5.88;;
35366;SDS011;21465;52.278;20.962;2023-01-25T03:33:39;5.88;;;5.38;;
35366;SDS011;21465;52.278;20.962;2023-01-25T03:36:05;6.07;;;5.57;;
35366;SDS011;21465;52.278;20.962;2023-01-25T03:38:31;5.97;;;5.40;;
35366;SDS011;21465;52.278;20.962;2023-01-25T03:40:57;6.13;;;5.53;;
35366;SDS011;21465;52.278;20.962;2023-01-25T03:43:23;6.30;;;5.80;;
35366;SDS011;21465;52.278;20.962;2023-01-25T03:45:52;5.25;;;4.78;;
35366;SDS011;21465;52.278;20.962;2023-01-25T03:48:20;4.78;;;4.38;;
35366;SDS011;21465;52.278;20.962;2023-01-25T03:50:49;4.85;;;4.43;;
35366;SDS011;21465;52.278;20.962;2023-01-25T03:53:17;6.30;;;5.70;;
35366;SDS011;21465;52.278;20.962;2023-01-25T04:00:54;5.43;;;4.93;;
35366;SDS011;21465;52.278;20.962;2023-01-25T04:03:20;6.03;;;5.50;;
35366;SDS011;21465;52.278;20.962;2023-01-25T04:05:46;6.68;;;6.07;;
35366;SDS011;21465;52.278;20.962;2023-01-25T04:08:13;7.22;;;6.63;;
35366;SDS011;21465;52.278;20.962;2023-01-25T04:10:39;7.00;;;6.40;;
35366;SDS011;21465;52.278;20.962;2023-01-25T04:13:04;7.47;;;6.78;;
35366;SDS011;21465;52.278;20.962;2023-01-25T04:15:30;7.68;;;6.97;;
35366;SDS011;21465;52.278;20.962;2023-01-25T04:17:56;7.13;;;6.43;;
35366;SDS011;21465;52.278;20.962;2023-01-25T04:20:22;7.32;;;6.63;;
35366;SDS011;21465;52.278;20.962;2023-01-25T04:22:47;9.65;;;8.75;;
35366;SDS011;21465;52.278;20.962;2023-01-25T04:25:13;9.50;;;8.60;;
35366;SDS011;21465;52.278;20.962;2023-01-25T04:27:39;9.60;;;8.70;;
35366;SDS011;21465;52.278;20.962;2023-01-25T04:30:05;10.45;;;9.50;;
35366;SDS011;21465;52.278;20.962;2023-01-25T04:32:33;10.30;;;9.30;;
35366;SDS011;21465;52.278;20.962;2023-01-25T04:34:59;10.32;;;9.43;;
35366;SDS011;21465;52.278;20.962;2023-01-25T04:37:25;10.60;;;9.60;;
35366;SDS011;21465;52.278;20.962;2023-01-25T04:39:51;11.18;;;10.27;;
35366;SDS011;21465;52.278;20.962;2023-01-25T04:42:16;11.05;;;10.05;;
35366;SDS011;21465;52.278;20.962;2023-01-25T04:44:42;11.13;;;10.13;;
35366;SDS011;21465;52.278;20.962;2023-01-25T04:47:08;10.40;;;9.40;;
35366;SDS011;21465;52.278;20.962;2023-01-25T04:49:34;10.80;;;9.80;;
35366;SDS011;21465;52.278;20.962;2023-01-25T04:51:59;10.65;;;9.65;;
35366;SDS011;21465;52.278;20.962;2023-01-25T04:54:26;12.05;;;10.95;;
35366;SDS011;21465;52.278;20.962;2023-01-25T04:56:52;11.63;;;10.48;;
35366;SDS011;21465;52.278;20.962;2023-01-25T04:59:18;11.10;;;10.10;;
35366;SDS011;21465;52.278;20.962;2023-01-25T05:01:43;12.52;;;11.23;;
35366;SDS011;21465;52.278;20.962;2023-01-25T05:04:09;12.70;;;11.38;;
35366;SDS011;21465;52.278;20.962;2023-01-25T05:06:35;14.50;;;12.18;;
35366;SDS011;21465;52.278;20.962;2023-01-25T05:09:00;13.30;;;12.00;;
35366;SDS011;21465;52.278;20.962;2023-01-25T05:11:26;13.93;;;12.57;;
35366;SDS011;21465;52.278;20.962;2023-01-25T05:13:53;13.02;;;11.73;;
35366;SDS011;21465;52.278;20.962;2023-01-25T05:16:19;13.27;;;11.88;;
35366;SDS011;21465;52.278;20.962;2023-01-25T05:18:45;13.45;;;12.15;;
35366;SDS011;21465;52.278;20.962;2023-01-25T05:21:10;13.75;;;12.07;;
35366;SDS011;21465;52.278;20.962;2023-01-25T05:23:56;14.55;;;13.10;;
35366;SDS011;21465;52.278;20.962;2023-01-25T05:26:22;14.38;;;12.98;;
35366;SDS011;21465;52.278;20.962;2023-01-25T05:29:07;14.63;;;13.13;;
35366;SDS011;21465;52.278;20.962;2023-01-25T05:31:33;15.82;;;14.18;;
35366;SDS011;21465;52.278;20.962;2023-01-25T05:33:59;15.27;;;13.77;;
35366;SDS011;21465;52.278;20.962;2023-01-25T05:36:25;14.93;;;13.40;;
35366;SDS011;21465;52.278;20.962;2023-01-25T05:38:50;15.68;;;14.10;;
35366;SDS011;21465;52.278;20.962;2023-01-25T05:41:17;15.15;;;13.50;;
35366;SDS011;21465;52.278;20.962;2023-01-25T05:43:46;15.85;;;14.15;;
35366;SDS011;21465;52.278;20.962;2023-01-25T05:46:12;17.13;;;14.87;;
35366;SDS011;21465;52.278;20.962;2023-01-25T05:48:38;15.98;;;14.38;;
35366;SDS011;21465;52.278;20.962;2023-01-25T05:51:04;15.57;;;13.98;;
35366;SDS011;21465;52.278;20.962;2023-01-25T05:53:30;15.32;;;13.73;;
35366;SDS011;21465;52.278;20.962;2023-01-25T05:55:55;16.15;;;14.45;;
35366;SDS011;21465;52.278;20.962;2023-01-25T05:58:27;15.18;;;13.48;;
35366;SDS011;21465;52.278;20.962;2023-01-25T06:00:53;15.02;;;13.52;;
35366;SDS011;21465;52.278;20.962;2023-01-25T06:03:20;16.02;;;14.02;;
35366;SDS011;21465;52.278;20.962;2023-01-25T06:05:46;15.55;;;13.95;;
35366;SDS011;21465;52.278;20.962;2023-01-25T06:08:11;17.50;;;15.70;;
35366;SDS011;21465;52.278;20.962;2023-01-25T06:10:37;17.50;;;15.70;;
35366;SDS011;21465;52.278;20.962;2023-01-25T06:13:03;16.58;;;14.80;;
35366;SDS011;21465;52.278;20.962;2023-01-25T06:15:29;16.45;;;14.73;;
35366;SDS011;21465;52.278;20.962;2023-01-25T06:17:55;16.27;;;14.57;;
35366;SDS011;21465;52.278;20.962;2023-01-25T06:20:20;17.45;;;14.68;;
35366;SDS011;21465;52.278;20.962;2023-01-25T06:22:50;15.85;;;14.23;;
35366;SDS011;21465;52.278;20.962;2023-01-25T06:25:16;17.65;;;15.88;;
35366;SDS011;21465;52.278;20.962;2023-01-25T06:27:42;16.88;;;14.63;;
35366;SDS011;21465;52.278;20.962;2023-01-25T06:30:08;17.30;;;15.38;;
35366;SDS011;21465;52.278;20.962;2023-01-25T06:32:37;17.33;;;15.52;;
35366;SDS011;21465;52.278;20.962;2023-01-25T06:35:02;17.85;;;15.77;;
35366;SDS011;21465;52.278;20.962;2023-01-25T06:37:28;17.02;;;15.32;;
35366;SDS011;21465;52.278;20.962;2023-01-25T06:39:54;16.50;;;14.80;;
35366;SDS011;21465;52.278;20.962;2023-01-25T06:42:20;16.80;;;15.10;;
35366;SDS011;21465;52.278;20.962;2023-01-25T06:44:48;15.48;;;13.98;;
35366;SDS011;21465;52.278;20.962;2023-01-25T06:47:14;16.05;;;14.48;;
35366;SDS011;21465;52.278;20.962;2023-01-25T06:49:39;15.00;;;13.50;;
35366;SDS011;21465;52.278;20.962;2023-01-25T06:52:05;16.48;;;14.52;;
35366;SDS011;21465;52.278;20.962;2023-01-25T06:54:31;15.02;;;13.43;;
35366;SDS011;21465;52.278;20.962;2023-01-25T06:56:57;15.38;;;13.30;;
35366;SDS011;21465;52.278;20.962;2023-01-25T06:59:22;14.13;;;12.73;;
35366;SDS011;21465;52.278;20.962;2023-01-25T07:01:48;14.82;;;13.32;;
35366;SDS011;21465;52.278;20.962;2023-01-25T07:04:14;15.20;;;13.63;;
35366;SDS011;21465;52.278;20.962;2023-01-25T07:06:40;14.18;;;12.75;;
35366;SDS011;21465;52.278;20.962;2023-01-25T07:09:07;15.60;;;12.88;;
35366;SDS011;21465;52.278;20.962;2023-01-25T07:11:35;13.18;;;11.88;;
35366;SDS011;21465;52.278;20.962;2023-01-25T07:14:04;12.45;;;11.15;;
35366;SDS011;21465;52.278;20.962;2023-01-25T07:16:30;12.52;;;11.30;;
35366;SDS011;21465;52.278;20.962;2023-01-25T07:19:18;12.77;;;11.55;;
35366;SDS011;21465;52.278;20.962;2023-01-25T07:25:01;13.48;;;11.38;;
35366;SDS011;21465;52.278;20.962;2023-01-25T07:28:00;12.95;;;11.50;;
35366;SDS011;21465;52.278;20.962;2023-01-25T07:30:52;13.75;;;11.40;;
35366;SDS011;21465;52.278;20.962;2023-01-25T07:33:20;12.32;;;11.13;;
35366;SDS011;21465;52.278;20.962;2023-01-25T07:36:10;14.40;;;12.55;;
35366;SDS011;21465;52.278;20.962;2023-01-25T07:38:48;12.15;;;10.90;;
35366;SDS011;21465;52.278;20.962;2023-01-25T07:42:01;15.13;;;12.45;;
35366;SDS011;21465;52.278;20.962;2023-01-25T07:45:05;13.85;;;11.43;;
35366;SDS011;21465;52.278;20.962;2023-01-25T07:47:33;14.15;;;12.65;;
35366;SDS011;21465;52.278;20.962;2023-01-25T07:49:59;14.50;;;13.00;;
35366;SDS011;21465;52.278;20.962;2023-01-25T07:52:33;13.88;;;12.30;;
35366;SDS011;21465;52.278;20.962;2023-01-25T07:55:03;14.70;;;12.38;;
35366;SDS011;21465;52.278;20.962;2023-01-25T07:57:31;13.38;;;11.98;;
35366;SDS011;21465;52.278;20.962;2023-01-25T08:00:02;15.35;;;12.55;;
35366;SDS011;21465;52.278;20.962;2023-01-25T08:02:56;16.60;;;13.52;;
35366;SDS011;21465;52.278;20.962;2023-01-25T08:05:23;15.23;;;13.57;;
35366;SDS011;21465;52.278;20.962;2023-01-25T08:07:49;13.73;;;12.30;;
35366;SDS011;21465;52.278;20.962;2023-01-25T08:10:15;14.32;;;12.82;;
35366;SDS011;21465;52.278;20.962;2023-01-25T08:12:43;12.95;;;11.73;;
35366;SDS011;21465;52.278;20.962;2023-01-25T08:15:11;14.20;;;12.85;;
35366;SDS011;21465;52.278;20.962;2023-01-25T08:17:45;15.73;;;13.30;;
35366;SDS011;21465;52.278;20.962;2023-01-25T08:20:11;15.13;;;12.15;;
35366;SDS011;21465;52.278;20.962;2023-01-25T08:22:38;16.20;;;14.10;;
35366;SDS011;21465;52.278;20.962;2023-01-25T08:25:07;15.00;;;13.48;;
35366;SDS011;21465;52.278;20.962;2023-01-25T08:27:32;14.35;;;12.85;;
35366;SDS011;21465;52.278;20.962;2023-01-25T08:29:58;16.27;;;13.45;;
35366;SDS011;21465;52.278;20.962;2023-01-25T08:32:24;14.50;;;13.10;;
35366;SDS011;21465;52.278;20.962;2023-01-25T08:34:57;14.38;;;12.88;;
35366;SDS011;21465;52.278;20.962;2023-01-25T08:37:23;14.35;;;12.95;;
35366;SDS011;21465;52.278;20.962;2023-01-25T08:39:59;14.57;;;13.07;;
35366;SDS011;21465;52.278;20.962;2023-01-25T08:42:24;14.70;;;13.20;;
35366;SDS011;21465;52.278;20.962;2023-01-25T08:44:50;13.82;;;12.52;;
35366;SDS011;21465;52.278;20.962;2023-01-25T08:47:16;13.48;;;12.07;;
35366;SDS011;21465;52.278;20.962;2023-01-25T08:49:42;13.73;;;12.32;;
35366;SDS011;21465;52.278;20.962;2023-01-25T08:52:07;12.80;;;11.50;;
35366;SDS011;21465;52.278;20.962;2023-01-25T08:54:33;14.80;;;13.35;;
35366;SDS011;21465;52.278;20.962;2023-01-25T08:57:00;14.10;;;12.73;;
35366;SDS011;21465;52.278;20.962;2023-01-25T08:59:26;14.40;;;12.98;;
35366;SDS011;21465;52.278;20.962;2023-01-25T09:01:51;14.02;;;12.70;;
35366;SDS011;21465;52.278;20.962;2023-01-25T09:04:17;14.18;;;12.80;;
35366;SDS011;21465;52.278;20.962;2023-01-25T09:06:56;14.50;;;13.00;;
35366;SDS011;21465;52.278;20.962;2023-01-25T09:09:35;13.70;;;12.40;;
35366;SDS011;21465;52.278;20.962;2023-01-25T09:12:17;14.88;;;13.40;;
35366;SDS011;21465;52.278;20.962;2023-01-25T09:14:44;16.30;;;12.60;;
35366;SDS011;21465;52.278;20.962;2023-01-25T09:17:19;13.15;;;11.85;;
35366;SDS011;21465;52.278;20.962;2023-01-25T09:20:06;12.15;;;10.98;;
35366;SDS011;21465;52.278;20.962;2023-01-25T09:26:15;12.82;;;11.63;;
35366;SDS011;21465;52.278;20.962;2023-01-25T09:32:38;13.15;;;11.80;;
35366;SDS011;21465;52.278;20.962;2023-01-25T09:35:47;12.95;;;11.65;;
35366;SDS011;21465;52.278;20.962;2023-01-25T09:38:37;14.48;;;12.68;;
35366;SDS011;21465;52.278;20.962;2023-01-25T09:44:06;14.30;;;12.75;;
35366;SDS011;21465;52.278;20.962;2023-01-25T09:46:48;14.05;;;12.65;;
35366;SDS011;21465;52.278;20.962;2023-01-25T09:52:37;14.13;;;11.88;;
35366;SDS011;21465;52.278;20.962;2023-01-25T09:55:13;14.68;;;13.13;;
35366;SDS011;21465;52.278;20.962;2023-01-25T09:57:40;15.30;;;13.70;;
35366;SDS011;21465;52.278;20.962;2023-01-25T10:00:18;14.73;;;13.23;;
35366;SDS011;21465;52.278;20.962;2023-01-25T10:05:44;14.13;;;12.73;;
35366;SDS011;21465;52.278;20.962;2023-01-25T10:08:35;13.52;;;12.23;;
35366;SDS011;21465;52.278;20.962;2023-01-25T10:13:56;13.88;;;12.48;;
35366;SDS011;21465;52.278;20.962;2023-01-25T10:22:26;13.82;;;12.48;;
35366;SDS011;21465;52.278;20.962;2023-01-25T10:28:03;13.75;;;12.35;;
35366;SDS011;21465;52.278;20.962;2023-01-25T10:31:16;14.48;;;13.05;;
35366;SDS011;21465;52.278;20.962;2023-01-25T10:33:46;13.80;;;12.40;;
35366;SDS011;21465;52.278;20.962;2023-01-25T10:36:14;13.90;;;12.60;;
35366;SDS011;21465;52.278;20.962;2023-01-25T10:38:41;13.93;;;12.52;;
35366;SDS011;21465;52.278;20.962;2023-01-25T10:44:00;14.77;;;13.32;;
35366;SDS011;21465;52.278;20.962;2023-01-25T10:46:49;15.18;;;13.73;;
35366;SDS011;21465;52.278;20.962;2023-01-25T10:49:31;14.90;;;13.48;;
35366;SDS011;21465;52.278;20.962;2023-01-25T10:52:12;14.50;;;13.05;;
35366;SDS011;21465;52.278;20.962;2023-01-25T10:54:40;14.00;;;12.65;;
35366;SDS011;21465;52.278;20.962;2023-01-25T10:57:07;14.05;;;12.75;;
35366;SDS011;21465;52.278;20.962;2023-01-25T10:59:33;13.27;;;12.00;;
35366;SDS011;21465;52.278;20.962;2023-01-25T11:04:53;13.48;;;12.18;;
35366;SDS011;21465;52.278;20.962;2023-01-25T11:07:26;14.82;;;13.40;;
35366;SDS011;21465;52.278;20.962;2023-01-25T11:09:53;16.08;;;13.88;;
35366;SDS011;21465;52.278;20.962;2023-01-25T11:12:19;14.70;;;13.18;;
35366;SDS011;21465;52.278;20.962;2023-01-25T11:14:45;17.50;;;13.38;;
35366;SDS011;21465;52.278;20.962;2023-01-25T11:17:29;13.32;;;12.02;;
35366;SDS011;21465;52.278;20.962;2023-01-25T11:22:54;15.20;;;13.70;;
35366;SDS011;21465;52.278;20.962;2023-01-25T11:28:16;15.82;;;14.30;;
35366;SDS011;21465;52.278;20.962;2023-01-25T11:30:43;15.98;;;14.38;;
35366;SDS011;21465;52.278;20.962;2023-01-25T11:33:10;15.48;;;13.85;;
35366;SDS011;21465;52.278;20.962;2023-01-25T11:35:38;16.48;;;14.88;;
35366;SDS011;21465;52.278;20.962;2023-01-25T11:38:12;15.07;;;13.68;;
35366;SDS011;21465;52.278;20.962;2023-01-25T11:43:27;14.75;;;13.25;;
35366;SDS011;21465;52.278;20.962;2023-01-25T11:46:28;15.52;;;14.02;;
35366;SDS011;21465;52.278;20.962;2023-01-25T11:51:34;15.13;;;13.52;;
35366;SDS011;21465;52.278;20.962;2023-01-25T11:54:08;15.52;;;13.98;;
35366;SDS011;21465;52.278;20.962;2023-01-25T11:56:53;15.10;;;13.60;;
35366;SDS011;21465;52.278;20.962;2023-01-25T12:00:09;16.83;;;14.40;;
35366;SDS011;21465;52.278;20.962;2023-01-25T12:02:31;14.85;;;13.35;;
35366;SDS011;21465;52.278;20.962;2023-01-25T12:18:17;15.18;;;13.57;;
35366;SDS011;21465;52.278;20.962;2023-01-25T12:20:56;16.73;;;15.07;;
35366;SDS011;21465;52.278;20.962;2023-01-25T12:26:28;17.17;;;15.40;;
35366;SDS011;21465;52.278;20.962;2023-01-25T12:31:42;15.50;;;13.93;;
35366;SDS011;21465;52.278;20.962;2023-01-25T12:36:45;15.07;;;13.35;;
35366;SDS011;21465;52.278;20.962;2023-01-25T12:39:12;15.70;;;14.07;;
35366;SDS011;21465;52.278;20.962;2023-01-25T12:44:30;14.80;;;13.40;;
35366;SDS011;21465;52.278;20.962;2023-01-25T12:47:01;15.93;;;14.15;;
35366;SDS011;21465;52.278;20.962;2023-01-25T12:51:58;18.13;;;16.02;;
35366;SDS011;21465;52.278;20.962;2023-01-25T12:54:33;16.35;;;14.65;;
35366;SDS011;21465;52.278;20.962;2023-01-25T12:57:10;16.98;;;15.30;;
35366;SDS011;21465;52.278;20.962;2023-01-25T13:05:15;16.23;;;14.65;;
35366;SDS011;21465;52.278;20.962;2023-01-25T13:07:55;17.27;;;15.48;;
35366;SDS011;21465;52.278;20.962;2023-01-25T13:10:32;16.88;;;15.05;;
35366;SDS011;21465;52.278;20.962;2023-01-25T13:13:13;15.98;;;14.15;;
35366;SDS011;21465;52.278;20.962;2023-01-25T13:15:44;17.48;;;14.23;;
35366;SDS011;21465;52.278;20.962;2023-01-25T13:20:50;16.25;;;14.55;;
35366;SDS011;21465;52.278;20.962;2023-01-25T13:28:54;15.90;;;14.27;;
35366;SDS011;21465;52.278;20.962;2023-01-25T13:34:09;15.10;;;13.60;;
35366;SDS011;21465;52.278;20.962;2023-01-25T13:44:36;15.52;;;13.90;;
35366;SDS011;21465;52.278;20.962;2023-01-25T13:47:08;16.95;;;14.85;;
35366;SDS011;21465;52.278;20.962;2023-01-25T13:49:38;15.02;;;13.43;;
35366;SDS011;21465;52.278;20.962;2023-01-25T13:52:05;15.73;;;14.07;;
35366;SDS011;21465;52.278;20.962;2023-01-25T13:54:32;15.38;;;13.70;;
35366;SDS011;21465;52.278;20.962;2023-01-25T13:57:11;17.02;;;15.23;;
35366;SDS011;21465;52.278;20.962;2023-01-25T13:59:45;16.75;;;14.88;;
35366;SDS011;21465;52.278;20.962;2023-01-25T14:02:18;15.52;;;13.80;;
35366;SDS011;21465;52.278;20.962;2023-01-25T14:04:46;14.90;;;13.40;;
35366;SDS011;21465;52.278;20.962;2023-01-25T14:07:15;15.95;;;13.82;;
35366;SDS011;21465;52.278;20.962;2023-01-25T14:09:48;16.25;;;14.55;;
35366;SDS011;21465;52.278;20.962;2023-01-25T14:17:46;15.80;;;14.13;;
35366;SDS011;21465;52.278;20.962;2023-01-25T14:20:42;15.43;;;13.65;;
35366;SDS011;21465;52.278;20.962;2023-01-25T14:23:21;16.83;;;15.02;;
35366;SDS011;21465;52.278;20.962;2023-01-25T14:25:48;17.48;;;13.32;;
35366;SDS011;21465;52.278;20.962;2023-01-25T14:28:14;19.15;;;14.18;;
35366;SDS011;21465;52.278;20.962;2023-01-25T14:30:40;19.23;;;15.13;;
35366;SDS011;21465;52.278;20.962;2023-01-25T14:35:52;16.17;;;13.90;;
35366;SDS011;21465;52.278;20.962;2023-01-25T14:40:58;17.80;;;15.90;;
35366;SDS011;21465;52.278;20.962;2023-01-25T14:43:25;17.20;;;14.27;;
35366;SDS011;21465;52.278;20.962;2023-01-25T14:45:52;16.30;;;14.63;;
35366;SDS011;21465;52.278;20.962;2023-01-25T14:48:34;16.83;;;15.02;;
35366;SDS011;21465;52.278;20.962;2023-01-25T14:51:01;18.02;;;15.40;;
35366;SDS011;21465;52.278;20.962;2023-01-25T14:53:54;15.43;;;13.57;;
35366;SDS011;21465;52.278;20.962;2023-01-25T14:56:34;15.40;;;13.80;;
35366;SDS011;21465;52.278;20.962;2023-01-25T15:05:06;15.05;;;13.13;;
35366;SDS011;21465;52.278;20.962;2023-01-25T15:07:47;13.20;;;11.90;;
35366;SDS011;21465;52.278;20.962;2023-01-25T15:10:26;13.88;;;12.48;;
35366;SDS011;21465;52.278;20.962;2023-01-25T15:16:00;13.77;;;12.30;;
35366;SDS011;21465;52.278;20.962;2023-01-25T15:18:41;14.93;;;13.43;;
35366;SDS011;21465;52.278;20.962;2023-01-25T15:21:23;14.75;;;13.25;;
35366;SDS011;21465;52.278;20.962;2023-01-25T15:23:50;14.88;;;13.27;;
35366;SDS011;21465;52.278;20.962;2023-01-25T15:28:54;18.58;;;16.58;;
35366;SDS011;21465;52.278;20.962;2023-01-25T15:33:56;19.95;;;16.73;;
35366;SDS011;21465;52.278;20.962;2023-01-25T15:36:26;18.27;;;15.95;;
35366;SDS011;21465;52.278;20.962;2023-01-25T15:38:53;17.60;;;15.80;;
35366;SDS011;21465;52.278;20.962;2023-01-25T15:41:27;17.83;;;15.93;;
35366;SDS011;21465;52.278;20.962;2023-01-25T15:43:58;17.83;;;15.98;;
35366;SDS011;21465;52.278;20.962;2023-01-25T15:46:30;18.60;;;16.27;;
35366;SDS011;21465;52.278;20.962;2023-01-25T15:49:04;17.30;;;15.30;;
35366;SDS011;21465;52.278;20.962;2023-01-25T15:51:38;18.35;;;16.45;;
35366;SDS011;21465;52.278;20.962;2023-01-25T15:54:07;17.50;;;15.60;;
35366;SDS011;21465;52.278;20.962;2023-01-25T15:56:36;19.15;;;15.85;;
35366;SDS011;21465;52.278;20.962;2023-01-25T15:59:05;20.23;;;16.98;;
35366;SDS011;21465;52.278;20.962;2023-01-25T16:01:37;17.98;;;16.08;;
35366;SDS011;21465;52.278;20.962;2023-01-25T16:04:04;20.83;;;17.63;;
35366;SDS011;21465;52.278;20.962;2023-01-25T16:09:11;19.90;;;17.17;;
35366;SDS011;21465;52.278;20.962;2023-01-25T16:11:39;19.15;;;17.10;;
35366;SDS011;21465;52.278;20.962;2023-01-25T16:14:05;17.20;;;15.40;;
35366;SDS011;21465;52.278;20.962;2023-01-25T16:16:30;16.55;;;14.88;;
35366;SDS011;21465;52.278;20.962;2023-01-25T16:18:59;17.70;;;15.32;;
35366;SDS011;21465;52.278;20.962;2023-01-25T16:21:25;16.92;;;14.80;;
35366;SDS011;21465;52.278;20.962;2023-01-25T16:23:51;17.02;;;13.95;;
35366;SDS011;21465;52.278;20.962;2023-01-25T16:26:23;15.52;;;13.93;;
35366;SDS011;21465;52.278;20.962;2023-01-25T16:28:50;17.38;;;12.38;;
35366;SDS011;21465;52.278;20.962;2023-01-25T16:31:17;15.57;;;13.93;;
35366;SDS011;21465;52.278;20.962;2023-01-25T16:33:43;15.73;;;13.82;;
35366;SDS011;21465;52.278;20.962;2023-01-25T16:36:19;15.73;;;14.10;;
35366;SDS011;21465;52.278;20.962;2023-01-25T16:38:46;15.77;;;14.18;;
35366;SDS011;21465;52.278;20.962;2023-01-25T16:41:12;16.40;;;14.48;;
35366;SDS011;21465;52.278;20.962;2023-01-25T16:43:42;17.40;;;15.05;;
35366;SDS011;21465;52.278;20.962;2023-01-25T16:46:19;17.05;;;14.85;;
35366;SDS011;21465;52.278;20.962;2023-01-25T16:48:47;15.57;;;13.98;;
35366;SDS011;21465;52.278;20.962;2023-01-25T16:51:23;17.00;;;15.20;;